sensor_id;sensor_type;location;lat;lon;timestamp;P1;durP1;ratioP1;P2;durP2;ratioP2
12248;SDS011;6187;50.778;6.142;2022-08-21T00:00:30;2.63;;;2.00;;
12248;SDS011;6187;50.778;6.142;2022-08-21T00:03:03;2.77;;;1.77;;
12248;SDS011;6187;50.778;6.142;2022-08-21T00:05:32;2.00;;;1.80;;
12248;SDS011;6187;50.778;6.142;2022-08-21T00:08:01;3.63;;;2.50;;
12248;SDS011;6187;50.778;6.142;2022-08-21T00:10:30;3.13;;;2.10;;
12248;SDS011;6187;50.778;6.142;2022-08-21T00:12:59;4.63;;;2.23;;
12248;SDS011;6187;50.778;6.142;2022-08-21T00:15:30;2.83;;;2.47;;
12248;SDS011;6187;50.778;6.142;2022-08-21T00:17:59;5.43;;;2.70;;
12248;SDS011;6187;50.778;6.142;2022-08-21T00:20:28;3.50;;;1.90;;
12248;SDS011;6187;50.778;6.142;2022-08-21T00:22:57;3.33;;;2.30;;
12248;SDS011;6187;50.778;6.142;2022-08-21T00:25:25;3.13;;;2.10;;
12248;SDS011;6187;50.778;6.142;2022-08-21T00:27:54;2.77;;;2.30;;
12248;SDS011;6187;50.778;6.142;2022-08-21T00:30:23;4.57;;;2.77;;
12248;SDS011;6187;50.778;6.142;2022-08-21T00:32:54;2.83;;;2.27;;
12248;SDS011;6187;50.778;6.142;2022-08-21T00:35:25;5.20;;;2.50;;
12248;SDS011;6187;50.778;6.142;2022-08-21T00:37:54;4.43;;;2.47;;
12248;SDS011;6187;50.778;6.142;2022-08-21T00:40:26;3.13;;;2.40;;
12248;SDS011;6187;50.778;6.142;2022-08-21T00:42:55;3.33;;;2.03;;
12248;SDS011;6187;50.778;6.142;2022-08-21T00:45:24;3.07;;;2.33;;
12248;SDS011;6187;50.778;6.142;2022-08-21T00:47:55;2.97;;;2.33;;
12248;SDS011;6187;50.778;6.142;2022-08-21T00:50:24;2.57;;;2.00;;
12248;SDS011;6187;50.778;6.142;2022-08-21T00:52:54;2.73;;;2.30;;
12248;SDS011;6187;50.778;6.142;2022-08-21T00:55:24;3.83;;;2.00;;
12248;SDS011;6187;50.778;6.142;2022-08-21T00:57:55;2.87;;;2.20;;
12248;SDS011;6187;50.778;6.142;2022-08-21T01:00:26;4.37;;;2.50;;
12248;SDS011;6187;50.778;6.142;2022-08-21T01:02:57;3.13;;;2.40;;
12248;SDS011;6187;50.778;6.142;2022-08-21T01:05:26;4.33;;;2.10;;
12248;SDS011;6187;50.778;6.142;2022-08-21T01:07:55;3.17;;;2.20;;
12248;SDS011;6187;50.778;6.142;2022-08-21T01:10:24;2.87;;;1.97;;
12248;SDS011;6187;50.778;6.142;2022-08-21T01:12:55;2.10;;;1.90;;
12248;SDS011;6187;50.778;6.142;2022-08-21T01:15:26;1.93;;;1.73;;
12248;SDS011;6187;50.778;6.142;2022-08-21T01:17:58;2.97;;;2.30;;
12248;SDS011;6187;50.778;6.142;2022-08-21T01:20:27;2.07;;;1.77;;
12248;SDS011;6187;50.778;6.142;2022-08-21T01:23:00;2.37;;;1.83;;
12248;SDS011;6187;50.778;6.142;2022-08-21T01:25:28;2.10;;;1.90;;
12248;SDS011;6187;50.778;6.142;2022-08-21T01:27:57;1.80;;;1.70;;
12248;SDS011;6187;50.778;6.142;2022-08-21T01:30:28;2.07;;;1.80;;
12248;SDS011;6187;50.778;6.142;2022-08-21T01:32:56;2.40;;;1.90;;
12248;SDS011;6187;50.778;6.142;2022-08-21T01:35:25;2.47;;;2.00;;
12248;SDS011;6187;50.778;6.142;2022-08-21T01:37:54;2.50;;;2.17;;
12248;SDS011;6187;50.778;6.142;2022-08-21T01:40:24;2.50;;;2.30;;
12248;SDS011;6187;50.778;6.142;2022-08-21T01:42:52;2.77;;;2.13;;
12248;SDS011;6187;50.778;6.142;2022-08-21T01:45:21;2.53;;;2.13;;
12248;SDS011;6187;50.778;6.142;2022-08-21T01:47:50;2.13;;;1.93;;
12248;SDS011;6187;50.778;6.142;2022-08-21T01:50:19;1.90;;;1.70;;
12248;SDS011;6187;50.778;6.142;2022-08-21T01:52:48;2.67;;;2.20;;
12248;SDS011;6187;50.778;6.142;2022-08-21T01:55:18;2.47;;;2.17;;
12248;SDS011;6187;50.778;6.142;2022-08-21T01:57:48;2.30;;;2.10;;
12248;SDS011;6187;50.778;6.142;2022-08-21T02:00:18;3.80;;;2.77;;
12248;SDS011;6187;50.778;6.142;2022-08-21T02:02:49;2.27;;;2.07;;
12248;SDS011;6187;50.778;6.142;2022-08-21T02:05:18;3.27;;;2.33;;
12248;SDS011;6187;50.778;6.142;2022-08-21T02:07:48;3.03;;;2.37;;
12248;SDS011;6187;50.778;6.142;2022-08-21T02:10:18;2.60;;;2.40;;
12248;SDS011;6187;50.778;6.142;2022-08-21T02:12:48;2.40;;;2.20;;
12248;SDS011;6187;50.778;6.142;2022-08-21T02:15:17;2.50;;;2.30;;
12248;SDS011;6187;50.778;6.142;2022-08-21T02:17:47;2.40;;;2.20;;
12248;SDS011;6187;50.778;6.142;2022-08-21T02:20:18;2.90;;;2.47;;
12248;SDS011;6187;50.778;6.142;2022-08-21T02:22:47;3.83;;;2.47;;
12248;SDS011;6187;50.778;6.142;2022-08-21T02:25:16;2.73;;;2.53;;
12248;SDS011;6187;50.778;6.142;2022-08-21T02:27:45;2.43;;;2.23;;
12248;SDS011;6187;50.778;6.142;2022-08-21T02:30:16;5.13;;;2.83;;
12248;SDS011;6187;50.778;6.142;2022-08-21T02:32:46;4.90;;;2.60;;
12248;SDS011;6187;50.778;6.142;2022-08-21T02:35:14;2.53;;;2.33;;
12248;SDS011;6187;50.778;6.142;2022-08-21T02:37:44;2.43;;;2.07;;
12248;SDS011;6187;50.778;6.142;2022-08-21T02:40:13;3.70;;;2.30;;
12248;SDS011;6187;50.778;6.142;2022-08-21T02:42:43;2.90;;;1.80;;
12248;SDS011;6187;50.778;6.142;2022-08-21T02:45:12;2.17;;;2.03;;
12248;SDS011;6187;50.778;6.142;2022-08-21T02:47:47;2.10;;;1.90;;
12248;SDS011;6187;50.778;6.142;2022-08-21T02:50:17;2.63;;;2.07;;
12248;SDS011;6187;50.778;6.142;2022-08-21T02:52:47;2.10;;;1.90;;
12248;SDS011;6187;50.778;6.142;2022-08-21T02:55:21;2.10;;;1.83;;
12248;SDS011;6187;50.778;6.142;2022-08-21T02:57:52;2.00;;;1.80;;
12248;SDS011;6187;50.778;6.142;2022-08-21T03:00:21;2.13;;;1.90;;
12248;SDS011;6187;50.778;6.142;2022-08-21T03:02:51;2.57;;;1.87;;
12248;SDS011;6187;50.778;6.142;2022-08-21T03:05:23;2.20;;;2.00;;
12248;SDS011;6187;50.778;6.142;2022-08-21T03:07:51;2.53;;;2.13;;
12248;SDS011;6187;50.778;6.142;2022-08-21T03:10:20;2.17;;;1.90;;
12248;SDS011;6187;50.778;6.142;2022-08-21T03:12:49;2.03;;;1.83;;
12248;SDS011;6187;50.778;6.142;2022-08-21T03:15:19;2.27;;;2.07;;
12248;SDS011;6187;50.778;6.142;2022-08-21T03:17:49;3.13;;;2.20;;
12248;SDS011;6187;50.778;6.142;2022-08-21T03:20:20;2.57;;;2.20;;
12248;SDS011;6187;50.778;6.142;2022-08-21T03:22:50;4.87;;;2.43;;
12248;SDS011;6187;50.778;6.142;2022-08-21T03:25:21;2.83;;;1.90;;
12248;SDS011;6187;50.778;6.142;2022-08-21T03:28:07;2.13;;;1.80;;
12248;SDS011;6187;50.778;6.142;2022-08-21T03:30:39;3.10;;;1.90;;
12248;SDS011;6187;50.778;6.142;2022-08-21T03:33:08;2.37;;;2.00;;
12248;SDS011;6187;50.778;6.142;2022-08-21T03:35:42;3.87;;;2.30;;
12248;SDS011;6187;50.778;6.142;2022-08-21T03:38:11;2.57;;;2.00;;
12248;SDS011;6187;50.778;6.142;2022-08-21T03:40:40;4.20;;;2.40;;
12248;SDS011;6187;50.778;6.142;2022-08-21T03:43:09;3.10;;;2.20;;
12248;SDS011;6187;50.778;6.142;2022-08-21T03:45:38;4.40;;;2.27;;
12248;SDS011;6187;50.778;6.142;2022-08-21T03:48:07;2.80;;;2.40;;
12248;SDS011;6187;50.778;6.142;2022-08-21T03:50:39;3.53;;;2.37;;
12248;SDS011;6187;50.778;6.142;2022-08-21T03:53:10;2.43;;;2.23;;
12248;SDS011;6187;50.778;6.142;2022-08-21T03:55:43;3.90;;;2.30;;
12248;SDS011;6187;50.778;6.142;2022-08-21T03:58:12;2.63;;;2.40;;
12248;SDS011;6187;50.778;6.142;2022-08-21T04:00:43;2.60;;;2.07;;
12248;SDS011;6187;50.778;6.142;2022-08-21T04:03:11;4.33;;;2.37;;
12248;SDS011;6187;50.778;6.142;2022-08-21T04:05:40;2.50;;;2.30;;
12248;SDS011;6187;50.778;6.142;2022-08-21T04:08:10;3.40;;;2.00;;
12248;SDS011;6187;50.778;6.142;2022-08-21T04:10:39;2.43;;;2.13;;
12248;SDS011;6187;50.778;6.142;2022-08-21T04:13:08;2.23;;;1.93;;
12248;SDS011;6187;50.778;6.142;2022-08-21T04:15:37;3.10;;;2.33;;
12248;SDS011;6187;50.778;6.142;2022-08-21T04:18:05;2.93;;;2.63;;
12248;SDS011;6187;50.778;6.142;2022-08-21T04:20:34;2.27;;;1.90;;
12248;SDS011;6187;50.778;6.142;2022-08-21T04:23:03;2.47;;;2.13;;
12248;SDS011;6187;50.778;6.142;2022-08-21T04:25:33;3.10;;;1.97;;
12248;SDS011;6187;50.778;6.142;2022-08-21T04:28:02;3.90;;;2.33;;
12248;SDS011;6187;50.778;6.142;2022-08-21T04:30:31;2.43;;;1.90;;
12248;SDS011;6187;50.778;6.142;2022-08-21T04:33:00;2.10;;;1.83;;
12248;SDS011;6187;50.778;6.142;2022-08-21T04:35:29;2.80;;;2.23;;
12248;SDS011;6187;50.778;6.142;2022-08-21T04:37:58;2.43;;;2.20;;
12248;SDS011;6187;50.778;6.142;2022-08-21T04:40:27;2.83;;;2.00;;
12248;SDS011;6187;50.778;6.142;2022-08-21T04:42:58;2.00;;;1.80;;
12248;SDS011;6187;50.778;6.142;2022-08-21T04:45:29;2.87;;;1.97;;
12248;SDS011;6187;50.778;6.142;2022-08-21T04:47:59;2.50;;;1.70;;
12248;SDS011;6187;50.778;6.142;2022-08-21T04:50:30;2.40;;;2.20;;
12248;SDS011;6187;50.778;6.142;2022-08-21T04:52:59;2.03;;;1.83;;
12248;SDS011;6187;50.778;6.142;2022-08-21T04:55:28;2.33;;;1.77;;
12248;SDS011;6187;50.778;6.142;2022-08-21T04:57:58;2.23;;;1.97;;
12248;SDS011;6187;50.778;6.142;2022-08-21T05:00:27;3.10;;;2.30;;
12248;SDS011;6187;50.778;6.142;2022-08-21T05:02:56;2.50;;;1.80;;
12248;SDS011;6187;50.778;6.142;2022-08-21T05:05:27;3.27;;;2.30;;
12248;SDS011;6187;50.778;6.142;2022-08-21T05:07:56;3.37;;;1.93;;
12248;SDS011;6187;50.778;6.142;2022-08-21T05:10:26;4.33;;;2.37;;
12248;SDS011;6187;50.778;6.142;2022-08-21T05:12:54;4.90;;;2.40;;
12248;SDS011;6187;50.778;6.142;2022-08-21T05:15:25;4.80;;;2.17;;
12248;SDS011;6187;50.778;6.142;2022-08-21T05:17:54;2.40;;;2.03;;
12248;SDS011;6187;50.778;6.142;2022-08-21T05:20:27;5.43;;;2.10;;
12248;SDS011;6187;50.778;6.142;2022-08-21T05:22:56;2.77;;;2.10;;
12248;SDS011;6187;50.778;6.142;2022-08-21T05:25:25;3.40;;;2.20;;
12248;SDS011;6187;50.778;6.142;2022-08-21T05:27:55;3.33;;;2.03;;
12248;SDS011;6187;50.778;6.142;2022-08-21T05:30:27;2.57;;;1.90;;
12248;SDS011;6187;50.778;6.142;2022-08-21T05:32:56;2.20;;;1.60;;
12248;SDS011;6187;50.778;6.142;2022-08-21T05:35:26;2.97;;;1.67;;
12248;SDS011;6187;50.778;6.142;2022-08-21T05:37:55;2.17;;;1.60;;
12248;SDS011;6187;50.778;6.142;2022-08-21T05:40:24;3.53;;;1.80;;
12248;SDS011;6187;50.778;6.142;2022-08-21T05:42:53;3.80;;;1.90;;
12248;SDS011;6187;50.778;6.142;2022-08-21T05:45:23;3.17;;;1.70;;
12248;SDS011;6187;50.778;6.142;2022-08-21T05:48:11;2.93;;;1.77;;
12248;SDS011;6187;50.778;6.142;2022-08-21T05:50:40;2.00;;;1.67;;
12248;SDS011;6187;50.778;6.142;2022-08-21T05:53:09;2.40;;;1.70;;
12248;SDS011;6187;50.778;6.142;2022-08-21T05:55:39;4.67;;;2.10;;
12248;SDS011;6187;50.778;6.142;2022-08-21T05:58:12;3.43;;;1.80;;
12248;SDS011;6187;50.778;6.142;2022-08-21T06:00:41;3.87;;;1.77;;
12248;SDS011;6187;50.778;6.142;2022-08-21T06:03:12;2.17;;;1.70;;
12248;SDS011;6187;50.778;6.142;2022-08-21T06:05:41;4.53;;;1.43;;
12248;SDS011;6187;50.778;6.142;2022-08-21T06:08:10;2.20;;;1.57;;
12248;SDS011;6187;50.778;6.142;2022-08-21T06:10:39;3.37;;;1.63;;
12248;SDS011;6187;50.778;6.142;2022-08-21T06:13:07;2.10;;;1.53;;
12248;SDS011;6187;50.778;6.142;2022-08-21T06:15:36;2.80;;;1.63;;
12248;SDS011;6187;50.778;6.142;2022-08-21T06:18:05;3.20;;;1.70;;
12248;SDS011;6187;50.778;6.142;2022-08-21T06:20:35;4.53;;;1.73;;
12248;SDS011;6187;50.778;6.142;2022-08-21T06:23:04;5.27;;;2.07;;
12248;SDS011;6187;50.778;6.142;2022-08-21T06:25:33;5.40;;;1.70;;
12248;SDS011;6187;50.778;6.142;2022-08-21T06:28:02;2.53;;;1.60;;
12248;SDS011;6187;50.778;6.142;2022-08-21T06:30:32;3.20;;;1.73;;
12248;SDS011;6187;50.778;6.142;2022-08-21T06:33:00;3.57;;;1.70;;
12248;SDS011;6187;50.778;6.142;2022-08-21T06:35:29;3.33;;;1.50;;
12248;SDS011;6187;50.778;6.142;2022-08-21T06:37:59;5.13;;;1.80;;
12248;SDS011;6187;50.778;6.142;2022-08-21T06:40:29;5.90;;;1.70;;
12248;SDS011;6187;50.778;6.142;2022-08-21T06:43:05;2.57;;;1.57;;
12248;SDS011;6187;50.778;6.142;2022-08-21T06:45:34;2.90;;;1.57;;
12248;SDS011;6187;50.778;6.142;2022-08-21T06:48:03;4.00;;;1.77;;
12248;SDS011;6187;50.778;6.142;2022-08-21T06:50:33;3.80;;;1.50;;
12248;SDS011;6187;50.778;6.142;2022-08-21T06:53:04;2.73;;;1.40;;
12248;SDS011;6187;50.778;6.142;2022-08-21T06:55:33;2.93;;;1.60;;
12248;SDS011;6187;50.778;6.142;2022-08-21T06:58:02;4.97;;;1.93;;
12248;SDS011;6187;50.778;6.142;2022-08-21T07:00:32;3.87;;;1.37;;
12248;SDS011;6187;50.778;6.142;2022-08-21T07:03:01;3.20;;;1.50;;
12248;SDS011;6187;50.778;6.142;2022-08-21T07:05:29;5.10;;;1.70;;
12248;SDS011;6187;50.778;6.142;2022-08-21T07:07:58;5.07;;;1.60;;
12248;SDS011;6187;50.778;6.142;2022-08-21T07:10:38;2.58;;;1.40;;
12248;SDS011;6187;50.778;6.142;2022-08-21T07:13:07;4.40;;;1.93;;
12248;SDS011;6187;50.778;6.142;2022-08-21T07:15:35;2.67;;;1.40;;
12248;SDS011;6187;50.778;6.142;2022-08-21T07:18:04;2.93;;;1.30;;
12248;SDS011;6187;50.778;6.142;2022-08-21T07:20:33;2.97;;;1.30;;
12248;SDS011;6187;50.778;6.142;2022-08-21T07:23:03;2.40;;;1.20;;
12248;SDS011;6187;50.778;6.142;2022-08-21T07:25:33;3.53;;;1.77;;
12248;SDS011;6187;50.778;6.142;2022-08-21T07:28:03;5.40;;;1.40;;
12248;SDS011;6187;50.778;6.142;2022-08-21T07:30:32;3.17;;;1.30;;
12248;SDS011;6187;50.778;6.142;2022-08-21T07:33:00;2.23;;;1.33;;
12248;SDS011;6187;50.778;6.142;2022-08-21T07:35:29;3.77;;;1.50;;
12248;SDS011;6187;50.778;6.142;2022-08-21T07:37:59;5.30;;;1.87;;
12248;SDS011;6187;50.778;6.142;2022-08-21T07:40:28;2.70;;;1.40;;
12248;SDS011;6187;50.778;6.142;2022-08-21T07:42:57;2.33;;;1.63;;
12248;SDS011;6187;50.778;6.142;2022-08-21T07:45:27;3.80;;;1.40;;
12248;SDS011;6187;50.778;6.142;2022-08-21T07:47:56;2.93;;;1.63;;
12248;SDS011;6187;50.778;6.142;2022-08-21T07:50:25;3.07;;;1.40;;
12248;SDS011;6187;50.778;6.142;2022-08-21T07:52:53;3.43;;;1.10;;
12248;SDS011;6187;50.778;6.142;2022-08-21T07:55:22;3.50;;;1.17;;
12248;SDS011;6187;50.778;6.142;2022-08-21T07:57:51;3.73;;;1.30;;
12248;SDS011;6187;50.778;6.142;2022-08-21T08:00:20;3.10;;;1.47;;
12248;SDS011;6187;50.778;6.142;2022-08-21T08:02:51;2.10;;;1.20;;
12248;SDS011;6187;50.778;6.142;2022-08-21T08:05:21;3.83;;;1.13;;
12248;SDS011;6187;50.778;6.142;2022-08-21T08:07:50;3.20;;;1.10;;
12248;SDS011;6187;50.778;6.142;2022-08-21T08:10:19;2.97;;;1.30;;
12248;SDS011;6187;50.778;6.142;2022-08-21T08:12:48;3.23;;;1.30;;
12248;SDS011;6187;50.778;6.142;2022-08-21T08:15:19;3.50;;;1.23;;
12248;SDS011;6187;50.778;6.142;2022-08-21T08:17:48;4.13;;;1.40;;
12248;SDS011;6187;50.778;6.142;2022-08-21T08:20:18;2.70;;;1.30;;
12248;SDS011;6187;50.778;6.142;2022-08-21T08:22:48;2.53;;;1.50;;
12248;SDS011;6187;50.778;6.142;2022-08-21T08:25:18;2.17;;;1.40;;
12248;SDS011;6187;50.778;6.142;2022-08-21T08:27:47;4.20;;;1.50;;
12248;SDS011;6187;50.778;6.142;2022-08-21T08:30:16;3.10;;;1.60;;
12248;SDS011;6187;50.778;6.142;2022-08-21T08:32:45;2.97;;;1.17;;
12248;SDS011;6187;50.778;6.142;2022-08-21T08:35:14;4.00;;;1.50;;
12248;SDS011;6187;50.778;6.142;2022-08-21T08:37:44;3.93;;;1.70;;
12248;SDS011;6187;50.778;6.142;2022-08-21T08:40:19;4.73;;;1.40;;
12248;SDS011;6187;50.778;6.142;2022-08-21T08:42:50;2.57;;;1.43;;
12248;SDS011;6187;50.778;6.142;2022-08-21T08:45:19;2.30;;;1.30;;
12248;SDS011;6187;50.778;6.142;2022-08-21T08:47:51;3.37;;;1.30;;
12248;SDS011;6187;50.778;6.142;2022-08-21T08:50:25;4.63;;;1.50;;
12248;SDS011;6187;50.778;6.142;2022-08-21T08:52:59;3.97;;;1.47;;
12248;SDS011;6187;50.778;6.142;2022-08-21T08:55:33;3.47;;;1.63;;
12248;SDS011;6187;50.778;6.142;2022-08-21T08:58:02;3.97;;;1.30;;
12248;SDS011;6187;50.778;6.142;2022-08-21T09:00:31;2.60;;;1.70;;
12248;SDS011;6187;50.778;6.142;2022-08-21T09:03:00;2.37;;;1.27;;
12248;SDS011;6187;50.778;6.142;2022-08-21T09:05:31;3.27;;;1.60;;
12248;SDS011;6187;50.778;6.142;2022-08-21T09:08:18;2.33;;;1.30;;
12248;SDS011;6187;50.778;6.142;2022-08-21T09:10:53;2.70;;;1.50;;
12248;SDS011;6187;50.778;6.142;2022-08-21T09:13:28;2.53;;;1.40;;
12248;SDS011;6187;50.778;6.142;2022-08-21T09:16:05;3.80;;;1.50;;
12248;SDS011;6187;50.778;6.142;2022-08-21T09:18:38;6.67;;;1.80;;
12248;SDS011;6187;50.778;6.142;2022-08-21T09:21:13;5.30;;;1.43;;
12248;SDS011;6187;50.778;6.142;2022-08-21T09:23:49;2.73;;;1.50;;
12248;SDS011;6187;50.778;6.142;2022-08-21T09:26:21;2.77;;;1.63;;
12248;SDS011;6187;50.778;6.142;2022-08-21T09:28:51;1.97;;;1.20;;
12248;SDS011;6187;50.778;6.142;2022-08-21T09:31:22;3.73;;;1.80;;
12248;SDS011;6187;50.778;6.142;2022-08-21T09:33:56;3.73;;;1.50;;
12248;SDS011;6187;50.778;6.142;2022-08-21T09:36:31;3.80;;;1.87;;
12248;SDS011;6187;50.778;6.142;2022-08-21T09:39:03;3.63;;;1.73;;
12248;SDS011;6187;50.778;6.142;2022-08-21T09:41:33;3.33;;;1.60;;
12248;SDS011;6187;50.778;6.142;2022-08-21T09:44:03;4.10;;;1.87;;
12248;SDS011;6187;50.778;6.142;2022-08-21T09:46:32;3.53;;;1.30;;
12248;SDS011;6187;50.778;6.142;2022-08-21T09:49:02;4.33;;;1.83;;
12248;SDS011;6187;50.778;6.142;2022-08-21T09:51:48;2.47;;;1.47;;
12248;SDS011;6187;50.778;6.142;2022-08-21T09:54:19;5.37;;;1.80;;
12248;SDS011;6187;50.778;6.142;2022-08-21T09:56:53;3.57;;;1.70;;
12248;SDS011;6187;50.778;6.142;2022-08-21T09:59:41;2.87;;;1.70;;
12248;SDS011;6187;50.778;6.142;2022-08-21T10:02:21;2.53;;;1.90;;
12248;SDS011;6187;50.778;6.142;2022-08-21T10:04:50;2.63;;;1.60;;
12248;SDS011;6187;50.778;6.142;2022-08-21T10:07:20;3.03;;;1.63;;
12248;SDS011;6187;50.778;6.142;2022-08-21T10:09:59;3.20;;;1.30;;
12248;SDS011;6187;50.778;6.142;2022-08-21T10:12:29;3.33;;;1.77;;
12248;SDS011;6187;50.778;6.142;2022-08-21T10:15:01;3.23;;;1.50;;
12248;SDS011;6187;50.778;6.142;2022-08-21T10:17:35;3.37;;;1.57;;
12248;SDS011;6187;50.778;6.142;2022-08-21T10:20:07;2.90;;;1.40;;
12248;SDS011;6187;50.778;6.142;2022-08-21T10:22:38;3.33;;;2.00;;
12248;SDS011;6187;50.778;6.142;2022-08-21T10:25:14;4.40;;;1.80;;
12248;SDS011;6187;50.778;6.142;2022-08-21T10:27:49;2.67;;;1.33;;
12248;SDS011;6187;50.778;6.142;2022-08-21T10:30:19;2.83;;;1.50;;
12248;SDS011;6187;50.778;6.142;2022-08-21T10:32:53;3.77;;;1.80;;
12248;SDS011;6187;50.778;6.142;2022-08-21T10:35:26;3.83;;;1.80;;
12248;SDS011;6187;50.778;6.142;2022-08-21T10:38:06;2.93;;;1.80;;
12248;SDS011;6187;50.778;6.142;2022-08-21T10:41:01;4.23;;;1.80;;
12248;SDS011;6187;50.778;6.142;2022-08-21T10:43:34;3.07;;;1.60;;
12248;SDS011;6187;50.778;6.142;2022-08-21T10:46:07;2.47;;;1.30;;
12248;SDS011;6187;50.778;6.142;2022-08-21T10:48:42;3.80;;;1.60;;
12248;SDS011;6187;50.778;6.142;2022-08-21T10:51:15;2.83;;;1.83;;
12248;SDS011;6187;50.778;6.142;2022-08-21T10:53:57;2.00;;;1.40;;
12248;SDS011;6187;50.778;6.142;2022-08-21T10:56:30;3.97;;;1.73;;
12248;SDS011;6187;50.778;6.142;2022-08-21T10:59:02;4.43;;;1.60;;
12248;SDS011;6187;50.778;6.142;2022-08-21T11:01:34;2.07;;;1.50;;
12248;SDS011;6187;50.778;6.142;2022-08-21T11:04:11;2.77;;;1.73;;
12248;SDS011;6187;50.778;6.142;2022-08-21T11:06:41;2.43;;;1.50;;
12248;SDS011;6187;50.778;6.142;2022-08-21T11:09:12;2.63;;;1.70;;
12248;SDS011;6187;50.778;6.142;2022-08-21T11:11:44;3.07;;;1.63;;
12248;SDS011;6187;50.778;6.142;2022-08-21T11:14:28;3.20;;;1.50;;
12248;SDS011;6187;50.778;6.142;2022-08-21T11:17:00;3.20;;;1.73;;
12248;SDS011;6187;50.778;6.142;2022-08-21T11:19:36;4.03;;;1.80;;
12248;SDS011;6187;50.778;6.142;2022-08-21T11:22:11;3.57;;;2.00;;
12248;SDS011;6187;50.778;6.142;2022-08-21T11:24:42;3.67;;;1.83;;
12248;SDS011;6187;50.778;6.142;2022-08-21T11:27:16;2.83;;;1.77;;
12248;SDS011;6187;50.778;6.142;2022-08-21T11:29:48;2.10;;;1.60;;
12248;SDS011;6187;50.778;6.142;2022-08-21T11:32:24;3.47;;;1.83;;
12248;SDS011;6187;50.778;6.142;2022-08-21T11:34:58;2.63;;;1.50;;
12248;SDS011;6187;50.778;6.142;2022-08-21T11:37:34;2.47;;;1.40;;
12248;SDS011;6187;50.778;6.142;2022-08-21T11:40:06;2.63;;;1.53;;
12248;SDS011;6187;50.778;6.142;2022-08-21T11:42:41;4.17;;;1.67;;
12248;SDS011;6187;50.778;6.142;2022-08-21T11:45:14;3.33;;;1.63;;
12248;SDS011;6187;50.778;6.142;2022-08-21T11:47:50;2.13;;;1.47;;
12248;SDS011;6187;50.778;6.142;2022-08-21T11:50:21;3.63;;;1.50;;
12248;SDS011;6187;50.778;6.142;2022-08-21T11:53:03;2.67;;;1.60;;
12248;SDS011;6187;50.778;6.142;2022-08-21T11:55:34;2.53;;;1.70;;
12248;SDS011;6187;50.778;6.142;2022-08-21T11:58:07;3.40;;;1.63;;
12248;SDS011;6187;50.778;6.142;2022-08-21T12:00:40;2.20;;;1.30;;
12248;SDS011;6187;50.778;6.142;2022-08-21T12:03:11;2.57;;;1.40;;
12248;SDS011;6187;50.778;6.142;2022-08-21T12:05:42;2.20;;;1.40;;
12248;SDS011;6187;50.778;6.142;2022-08-21T12:08:11;1.97;;;1.40;;
12248;SDS011;6187;50.778;6.142;2022-08-21T12:10:41;4.67;;;1.60;;
12248;SDS011;6187;50.778;6.142;2022-08-21T12:13:21;4.73;;;2.03;;
12248;SDS011;6187;50.778;6.142;2022-08-21T12:16:10;2.97;;;1.50;;
12248;SDS011;6187;50.778;6.142;2022-08-21T12:18:39;2.20;;;1.47;;
12248;SDS011;6187;50.778;6.142;2022-08-21T12:21:19;2.77;;;1.60;;
12248;SDS011;6187;50.778;6.142;2022-08-21T12:24:00;3.03;;;1.70;;
12248;SDS011;6187;50.778;6.142;2022-08-21T12:26:32;3.00;;;1.70;;
12248;SDS011;6187;50.778;6.142;2022-08-21T12:29:07;2.37;;;1.50;;
12248;SDS011;6187;50.778;6.142;2022-08-21T12:31:47;3.20;;;1.60;;
12248;SDS011;6187;50.778;6.142;2022-08-21T12:34:16;2.60;;;1.40;;
12248;SDS011;6187;50.778;6.142;2022-08-21T12:36:46;2.63;;;1.40;;
12248;SDS011;6187;50.778;6.142;2022-08-21T12:39:17;3.40;;;1.53;;
12248;SDS011;6187;50.778;6.142;2022-08-21T12:41:49;2.30;;;1.70;;
12248;SDS011;6187;50.778;6.142;2022-08-21T12:44:22;2.27;;;1.50;;
12248;SDS011;6187;50.778;6.142;2022-08-21T12:46:54;3.95;;;1.70;;
12248;SDS011;6187;50.778;6.142;2022-08-21T12:49:26;3.73;;;1.63;;
12248;SDS011;6187;50.778;6.142;2022-08-21T12:52:00;3.70;;;1.67;;
12248;SDS011;6187;50.778;6.142;2022-08-21T12:54:30;2.60;;;1.50;;
12248;SDS011;6187;50.778;6.142;2022-08-21T12:57:00;2.47;;;1.88;;
12248;SDS011;6187;50.778;6.142;2022-08-21T12:59:31;1.92;;;1.50;;
12248;SDS011;6187;50.778;6.142;2022-08-21T13:02:00;3.27;;;1.60;;
12248;SDS011;6187;50.778;6.142;2022-08-21T13:04:33;3.25;;;1.50;;
12248;SDS011;6187;50.778;6.142;2022-08-21T13:07:05;3.83;;;1.43;;
12248;SDS011;6187;50.778;6.142;2022-08-21T13:09:34;3.33;;;1.63;;
12248;SDS011;6187;50.778;6.142;2022-08-21T13:12:06;2.03;;;1.30;;
12248;SDS011;6187;50.778;6.142;2022-08-21T13:14:38;5.57;;;1.77;;
12248;SDS011;6187;50.778;6.142;2022-08-21T13:17:12;2.33;;;1.50;;
12248;SDS011;6187;50.778;6.142;2022-08-21T13:19:57;3.47;;;1.43;;
12248;SDS011;6187;50.778;6.142;2022-08-21T13:22:27;2.90;;;1.30;;
12248;SDS011;6187;50.778;6.142;2022-08-21T13:25:01;2.27;;;1.40;;
12248;SDS011;6187;50.778;6.142;2022-08-21T13:27:33;3.33;;;1.50;;
12248;SDS011;6187;50.778;6.142;2022-08-21T13:30:05;2.33;;;1.30;;
12248;SDS011;6187;50.778;6.142;2022-08-21T13:32:34;2.90;;;1.37;;
12248;SDS011;6187;50.778;6.142;2022-08-21T13:35:09;3.10;;;1.40;;
12248;SDS011;6187;50.778;6.142;2022-08-21T13:37:38;3.20;;;1.57;;
12248;SDS011;6187;50.778;6.142;2022-08-21T13:40:09;3.00;;;1.30;;
12248;SDS011;6187;50.778;6.142;2022-08-21T13:42:40;1.63;;;1.10;;
12248;SDS011;6187;50.778;6.142;2022-08-21T13:45:18;3.00;;;1.60;;
12248;SDS011;6187;50.778;6.142;2022-08-21T13:47:49;2.33;;;1.30;;
12248;SDS011;6187;50.778;6.142;2022-08-21T13:50:20;3.50;;;1.40;;
12248;SDS011;6187;50.778;6.142;2022-08-21T13:52:55;2.60;;;1.33;;
12248;SDS011;6187;50.778;6.142;2022-08-21T13:55:25;2.90;;;1.17;;
12248;SDS011;6187;50.778;6.142;2022-08-21T13:58:03;3.60;;;1.60;;
12248;SDS011;6187;50.778;6.142;2022-08-21T14:00:34;3.97;;;1.87;;
12248;SDS011;6187;50.778;6.142;2022-08-21T14:03:05;2.33;;;1.23;;
12248;SDS011;6187;50.778;6.142;2022-08-21T14:05:36;2.40;;;1.23;;
12248;SDS011;6187;50.778;6.142;2022-08-21T14:08:07;2.67;;;1.30;;
12248;SDS011;6187;50.778;6.142;2022-08-21T14:10:37;3.67;;;1.50;;
12248;SDS011;6187;50.778;6.142;2022-08-21T14:13:17;3.60;;;1.70;;
12248;SDS011;6187;50.778;6.142;2022-08-21T14:15:56;2.80;;;1.53;;
12248;SDS011;6187;50.778;6.142;2022-08-21T14:18:25;3.23;;;1.63;;
12248;SDS011;6187;50.778;6.142;2022-08-21T14:21:03;2.63;;;1.40;;
12248;SDS011;6187;50.778;6.142;2022-08-21T14:23:32;4.50;;;1.67;;
12248;SDS011;6187;50.778;6.142;2022-08-21T14:26:03;3.83;;;1.53;;
12248;SDS011;6187;50.778;6.142;2022-08-21T14:28:32;2.53;;;1.70;;
12248;SDS011;6187;50.778;6.142;2022-08-21T14:31:12;3.70;;;1.30;;
12248;SDS011;6187;50.778;6.142;2022-08-21T14:33:41;2.63;;;1.50;;
12248;SDS011;6187;50.778;6.142;2022-08-21T14:36:10;3.17;;;1.50;;
12248;SDS011;6187;50.778;6.142;2022-08-21T14:38:40;2.37;;;1.60;;
12248;SDS011;6187;50.778;6.142;2022-08-21T14:41:12;2.60;;;1.60;;
12248;SDS011;6187;50.778;6.142;2022-08-21T14:43:43;3.13;;;1.90;;
12248;SDS011;6187;50.778;6.142;2022-08-21T14:46:16;3.73;;;1.70;;
12248;SDS011;6187;50.778;6.142;2022-08-21T14:48:46;3.37;;;1.70;;
12248;SDS011;6187;50.778;6.142;2022-08-21T14:51:16;3.10;;;1.40;;
12248;SDS011;6187;50.778;6.142;2022-08-21T14:53:45;4.90;;;1.80;;
12248;SDS011;6187;50.778;6.142;2022-08-21T14:56:14;5.23;;;1.73;;
12248;SDS011;6187;50.778;6.142;2022-08-21T14:58:44;2.07;;;1.40;;
12248;SDS011;6187;50.778;6.142;2022-08-21T15:01:15;2.60;;;1.40;;
12248;SDS011;6187;50.778;6.142;2022-08-21T15:03:45;3.47;;;1.40;;
12248;SDS011;6187;50.778;6.142;2022-08-21T15:06:15;4.23;;;1.53;;
12248;SDS011;6187;50.778;6.142;2022-08-21T15:08:44;4.47;;;1.57;;
12248;SDS011;6187;50.778;6.142;2022-08-21T15:11:15;3.20;;;1.57;;
12248;SDS011;6187;50.778;6.142;2022-08-21T15:14:05;3.50;;;1.50;;
12248;SDS011;6187;50.778;6.142;2022-08-21T15:16:36;2.60;;;1.57;;
12248;SDS011;6187;50.778;6.142;2022-08-21T15:19:05;3.37;;;1.77;;
12248;SDS011;6187;50.778;6.142;2022-08-21T15:21:34;3.37;;;1.67;;
12248;SDS011;6187;50.778;6.142;2022-08-21T15:24:02;4.13;;;1.77;;